Terminal Aerodrome Forecast
Issued by NWS

Home | Current Version | Previous Version | Text Only | Print | Product List | Glossary On
Versions: 1 2 3 4 5 6 7 8 9 10 11 12 13 14 15 16 17 18 19 20 21 22 23 24 25 26 27 28 29 30
000
FTUS43 KDLH 182300
TAFHIB
TAF
KHIB 182335Z 1900/1924 15010KT P6SM BKN015
     FM190400 16008KT P6SM FEW010 SCT250 WS020/20040KT
     FM190800 18010KT P6SM BKN250 WS020/21050KT
     FM191200 19011G19KT P6SM VCSH FEW015 BKN100
     FM191500 20013G25KT P6SM -SHRA SCT015 BKN035
     FM191800 19013G25KT P6SM -SHRA OVC025
     FM192100 19010G20KT P6SM BKN030=

USA.gov is the U.S. government's official web portal to all federal, state and local government web resources and services.